Time;durP1;ratioP1;P1;durP2;ratioP2;P2;SDS_P1;SDS_P2;PMS_P1;PMS_P2;Temp;Humidity;BMP_temperature;BMP_pressure;BME280_temperature;BME280_humidity;BME280_pressure;Samples;Min_cycle;Max_cycle;Signal;HPM_P1;HPM_P2
2022/06/17 00:02:18;;;;;;;0.85;0.80;;;;;;;;;;1772681;79;26382;-49
2022/06/17 00:04:47;;;;;;;0.80;0.80;;;;;;;;;;1765509;79;26308;-52
2022/06/17 00:07:15;;;;;;;0.72;0.72;;;;;;;;;;1760499;79;26399;-54
2022/06/17 00:09:42;;;;;;;0.70;0.70;;;;;;;;;;1767230;79;27553;-54
2022/06/17 00:12:14;;;;;;;0.70;0.70;;;;;;;;;;1758734;80;26329;-57
2022/06/17 00:17:26;;;;;;;0.70;0.70;;;;;;;;;;1760463;80;26336;-56
2022/06/17 00:19:54;;;;;;;0.62;0.62;;;;;;;;;;1773160;79;26803;-57
2022/06/17 00:22:21;;;;;;;0.60;0.60;;;;;;;;;;1764001;80;26786;-55
2022/06/17 00:24:50;;;;;;;0.70;0.70;;;;;;;;;;1767109;80;26712;-46
2022/06/17 00:27:17;;;;;;;0.65;0.65;;;;;;;;;;1774329;79;26252;-48
2022/06/17 00:29:44;;;;;;;0.70;0.70;;;;;;;;;;1765007;80;26283;-49
2022/06/17 00:32:12;;;;;;;1.15;0.80;;;;;;;;;;1764400;80;26307;-48
2022/06/17 00:34:39;;;;;;;0.60;0.60;;;;;;;;;;1762940;80;26375;-55
2022/06/17 00:37:07;;;;;;;0.70;0.70;;;;;;;;;;1756166;79;26680;-51
2022/06/17 00:39:36;;;;;;;0.82;0.82;;;;;;;;;;1762649;80;26402;-56
2022/06/17 00:42:08;;;;;;;0.72;0.72;;;;;;;;;;1765330;80;26362;-51
2022/06/17 00:44:37;;;;;;;0.80;0.80;;;;;;;;;;1764411;80;26328;-55
2022/06/17 00:47:11;;;;;;;1.17;0.70;;;;;;;;;;1763736;79;26350;-52
2022/06/17 00:49:49;;;;;;;0.78;0.78;;;;;;;;;;1756719;79;26367;-53
2022/06/17 00:52:21;;;;;;;0.75;0.75;;;;;;;;;;1763381;80;26762;-53
2022/06/17 00:55:02;;;;;;;0.80;0.80;;;;;;;;;;1764702;80;26770;-52
2022/06/17 00:57:31;;;;;;;0.60;0.60;;;;;;;;;;1773457;80;26281;-52
2022/06/17 01:00:03;;;;;;;0.70;0.70;;;;;;;;;;1765848;79;26401;-49
2022/06/17 01:02:32;;;;;;;0.80;0.80;;;;;;;;;;1764517;80;26257;-48
2022/06/17 01:05:02;;;;;;;0.68;0.68;;;;;;;;;;1761480;80;26357;-47
2022/06/17 01:07:31;;;;;;;0.68;0.68;;;;;;;;;;1758752;80;26386;-50
2022/06/17 01:10:02;;;;;;;0.80;0.80;;;;;;;;;;1763426;79;26362;-53
2022/06/17 01:12:33;;;;;;;0.70;0.70;;;;;;;;;;1765451;80;26374;-51
2022/06/17 01:15:02;;;;;;;0.80;0.80;;;;;;;;;;1762070;80;27149;-53
2022/06/17 01:17:29;;;;;;;0.80;0.80;;;;;;;;;;1766280;79;26261;-49
2022/06/17 01:19:58;;;;;;;0.80;0.80;;;;;;;;;;1788488;79;27033;-50
2022/06/17 01:22:29;;;;;;;0.68;0.68;;;;;;;;;;1787831;79;26338;-50
2022/06/17 01:25:16;;;;;;;0.82;0.82;;;;;;;;;;1774413;79;26353;-47
2022/06/17 01:27:45;;;;;;;1.40;0.70;;;;;;;;;;1779048;79;26585;-48
2022/06/17 01:30:15;;;;;;;1.00;0.80;;;;;;;;;;1779748;79;26722;-48
2022/06/17 01:32:49;;;;;;;0.60;0.60;;;;;;;;;;1777301;79;26785;-48
2022/06/17 01:35:18;;;;;;;0.98;0.78;;;;;;;;;;1785626;79;26283;-51
2022/06/17 01:37:45;;;;;;;0.70;0.70;;;;;;;;;;1776735;78;26306;-49
2022/06/17 01:40:13;;;;;;;2.05;0.70;;;;;;;;;;1791349;79;26220;-51
2022/06/17 01:42:40;;;;;;;0.75;0.75;;;;;;;;;;1769227;79;26333;-47
2022/06/17 01:45:08;;;;;;;1.67;0.62;;;;;;;;;;1763308;79;26322;-53
2022/06/17 01:47:37;;;;;;;4.90;0.70;;;;;;;;;;1778555;79;26904;-52
2022/06/17 01:50:06;;;;;;;0.70;0.70;;;;;;;;;;1769207;79;26286;-52
2022/06/17 01:52:40;;;;;;;0.80;0.80;;;;;;;;;;1774886;79;26303;-52
2022/06/17 01:55:18;;;;;;;0.80;0.80;;;;;;;;;;1773727;79;27402;-51
2022/06/17 01:57:47;;;;;;;0.90;0.90;;;;;;;;;;1759002;79;26353;-54
2022/06/17 02:00:16;;;;;;;0.70;0.70;;;;;;;;;;1768189;79;26389;-55
2022/06/17 02:02:44;;;;;;;0.80;0.80;;;;;;;;;;1772360;79;26273;-52
2022/06/17 02:05:12;;;;;;;0.72;0.70;;;;;;;;;;1757679;79;26797;-48
2022/06/17 02:07:44;;;;;;;0.60;0.60;;;;;;;;;;1761541;79;26264;-50
2022/06/17 02:10:12;;;;;;;0.60;0.60;;;;;;;;;;1763698;79;26434;-50
2022/06/17 02:12:40;;;;;;;0.62;0.62;;;;;;;;;;1774363;79;26294;-51
2022/06/17 02:15:08;;;;;;;0.90;0.90;;;;;;;;;;1772063;79;26302;-51
2022/06/17 02:17:39;;;;;;;0.78;0.78;;;;;;;;;;1779503;79;26726;-53
2022/06/17 02:20:07;;;;;;;0.80;0.80;;;;;;;;;;1767335;78;26377;-52
2022/06/17 02:22:35;;;;;;;0.80;0.80;;;;;;;;;;1770357;79;26786;-55
2022/06/17 02:25:04;;;;;;;0.80;0.80;;;;;;;;;;1769566;79;26327;-53
2022/06/17 02:27:33;;;;;;;0.72;0.72;;;;;;;;;;1756447;81;26285;-56
2022/06/17 02:30:01;;;;;;;1.00;0.78;;;;;;;;;;1756023;79;26328;-52
2022/06/17 02:32:30;;;;;;;0.70;0.70;;;;;;;;;;1747592;79;26360;-49
2022/06/17 02:34:59;;;;;;;0.68;0.68;;;;;;;;;;1764985;79;26317;-52
2022/06/17 02:37:26;;;;;;;0.88;0.88;;;;;;;;;;1750273;79;26375;-52
2022/06/17 02:39:55;;;;;;;0.68;0.68;;;;;;;;;;1759051;79;26268;-53
2022/06/17 02:42:24;;;;;;;0.70;0.70;;;;;;;;;;1772185;80;26371;-55
2022/06/17 02:44:56;;;;;;;0.80;0.80;;;;;;;;;;1774003;79;26666;-48
2022/06/17 02:47:23;;;;;;;1.03;0.93;;;;;;;;;;1763264;79;26245;-51
2022/06/17 02:49:51;;;;;;;0.70;0.70;;;;;;;;;;1770368;80;26777;-50
2022/06/17 02:52:20;;;;;;;0.90;0.90;;;;;;;;;;1762016;79;26871;-55
2022/06/17 02:54:55;;;;;;;0.80;0.80;;;;;;;;;;1771692;79;26308;-56
2022/06/17 02:57:24;;;;;;;0.60;0.60;;;;;;;;;;1769659;79;26719;-50
2022/06/17 02:59:56;;;;;;;0.70;0.70;;;;;;;;;;1749584;79;26827;-50
2022/06/17 03:02:25;;;;;;;0.93;0.93;;;;;;;;;;1771608;79;26790;-50
2022/06/17 03:04:53;;;;;;;0.90;0.90;;;;;;;;;;1753385;80;26717;-51
2022/06/17 03:07:22;;;;;;;0.80;0.80;;;;;;;;;;1763110;79;26427;-53
2022/06/17 03:09:49;;;;;;;0.80;0.80;;;;;;;;;;1766224;79;26402;-50
2022/06/17 03:12:21;;;;;;;1.37;0.85;;;;;;;;;;1767073;79;26251;-48
2022/06/17 03:15:08;;;;;;;0.75;0.75;;;;;;;;;;1759472;79;26289;-51
2022/06/17 03:17:37;;;;;;;0.88;0.88;;;;;;;;;;1767329;79;26244;-49
2022/06/17 03:20:06;;;;;;;1.10;1.00;;;;;;;;;;1764802;79;26402;-49
2022/06/17 03:22:33;;;;;;;0.70;0.70;;;;;;;;;;1756802;80;26711;-50
2022/06/17 03:25:05;;;;;;;0.80;0.80;;;;;;;;;;1756538;80;26841;-47
2022/06/17 03:27:37;;;;;;;0.80;0.80;;;;;;;;;;1747233;80;26253;-52
2022/06/17 03:30:05;;;;;;;0.80;0.80;;;;;;;;;;1749755;80;26382;-51
2022/06/17 03:32:36;;;;;;;1.40;0.80;;;;;;;;;;1756880;80;26516;-52
2022/06/17 03:35:04;;;;;;;0.70;0.70;;;;;;;;;;1756864;80;26304;-53
2022/06/17 03:37:33;;;;;;;0.72;0.72;;;;;;;;;;1742802;80;26292;-48
2022/06/17 03:40:03;;;;;;;0.80;0.80;;;;;;;;;;1756600;80;26236;-48
2022/06/17 03:42:31;;;;;;;0.90;0.90;;;;;;;;;;1759717;80;26691;-48
2022/06/17 03:45:06;;;;;;;0.80;0.80;;;;;;;;;;1750346;80;27335;-48
2022/06/17 03:47:38;;;;;;;0.82;0.82;;;;;;;;;;1755952;80;26240;-49
2022/06/17 03:50:08;;;;;;;0.78;0.78;;;;;;;;;;1763802;80;26300;-48
2022/06/17 03:52:36;;;;;;;0.90;0.90;;;;;;;;;;1757409;80;26337;-50
2022/06/17 03:55:04;;;;;;;1.00;1.00;;;;;;;;;;1738960;80;26751;-50
2022/06/17 03:57:32;;;;;;;0.80;0.80;;;;;;;;;;1750177;80;26354;-53
2022/06/17 03:59:59;;;;;;;0.90;0.90;;;;;;;;;;1760476;80;26272;-51
2022/06/17 04:02:29;;;;;;;0.80;0.80;;;;;;;;;;1755327;80;26896;-51
2022/06/17 04:04:57;;;;;;;0.72;0.72;;;;;;;;;;1755830;80;26278;-50
2022/06/17 04:07:24;;;;;;;0.72;0.72;;;;;;;;;;1741846;80;26280;-48
2022/06/17 04:09:53;;;;;;;0.70;0.70;;;;;;;;;;1745998;80;26260;-50
2022/06/17 04:12:22;;;;;;;1.57;0.80;;;;;;;;;;1743192;80;26751;-52
2022/06/17 04:14:57;;;;;;;0.70;0.70;;;;;;;;;;1735929;80;27259;-52
2022/06/17 04:17:34;;;;;;;1.75;0.80;;;;;;;;;;1756769;80;26276;-53
2022/06/17 04:20:03;;;;;;;0.90;0.90;;;;;;;;;;1765961;79;26367;-49
2022/06/17 04:22:31;;;;;;;0.72;0.70;;;;;;;;;;1771641;79;26289;-50
2022/06/17 04:25:00;;;;;;;0.70;0.70;;;;;;;;;;1765562;80;26304;-53
2022/06/17 04:27:56;;;;;;;1.05;0.80;;;;;;;;;;1765221;80;26296;-51
2022/06/17 04:29:57;;;;;;;0.68;0.68;;;;;;;;;;1761426;80;26259;-49
2022/06/17 04:32:28;;;;;;;1.00;0.70;;;;;;;;;;1759548;80;26761;-54
2022/06/17 04:34:55;;;;;;;1.02;0.90;;;;;;;;;;1755178;80;26692;-50
2022/06/17 04:37:23;;;;;;;0.80;0.80;;;;;;;;;;1755297;80;26716;-48
2022/06/17 04:39:55;;;;;;;0.70;0.70;;;;;;;;;;1759402;80;26358;-48
2022/06/17 04:42:24;;;;;;;0.80;0.80;;;;;;;;;;1758355;79;26276;-48
2022/06/17 04:44:52;;;;;;;0.60;0.60;;;;;;;;;;1764402;79;26725;-51
2022/06/17 04:47:21;;;;;;;0.80;0.80;;;;;;;;;;1768751;79;26766;-55
2022/06/17 04:49:59;;;;;;;0.70;0.70;;;;;;;;;;1764169;80;26358;-50
2022/06/17 04:52:28;;;;;;;0.70;0.70;;;;;;;;;;1764943;80;26295;-53
2022/06/17 04:54:57;;;;;;;0.90;0.62;;;;;;;;;;1758950;80;26262;-50
2022/06/17 04:57:24;;;;;;;2.47;0.70;;;;;;;;;;1758125;80;26680;-50
2022/06/17 04:59:51;;;;;;;0.90;0.60;;;;;;;;;;1758674;80;26299;-51
2022/06/17 05:02:20;;;;;;;0.70;0.70;;;;;;;;;;1761296;80;26456;-50
2022/06/17 05:04:49;;;;;;;0.80;0.80;;;;;;;;;;1768104;79;26787;-49
2022/06/17 05:07:17;;;;;;;2.30;0.70;;;;;;;;;;1742071;81;27039;-47
2022/06/17 05:10:03;;;;;;;0.70;0.70;;;;;;;;;;1752553;80;26862;-51
2022/06/17 05:12:37;;;;;;;0.70;0.70;;;;;;;;;;1752331;80;26759;-52
2022/06/17 05:15:06;;;;;;;0.70;0.70;;;;;;;;;;1751627;80;26814;-48
2022/06/17 05:17:34;;;;;;;0.60;0.60;;;;;;;;;;1748488;81;26743;-50
2022/06/17 05:20:02;;;;;;;0.78;0.78;;;;;;;;;;1748322;80;26321;-50
2022/06/17 05:22:40;;;;;;;1.02;0.70;;;;;;;;;;1738113;80;26801;-51
2022/06/17 05:25:09;;;;;;;0.60;0.60;;;;;;;;;;1758220;80;26355;-51
2022/06/17 05:27:36;;;;;;;3.75;0.70;;;;;;;;;;1741677;80;26257;-47
2022/06/17 05:30:03;;;;;;;1.55;0.70;;;;;;;;;;1768834;80;26299;-52
2022/06/17 05:32:31;;;;;;;0.72;0.70;;;;;;;;;;1753805;80;26292;-54
2022/06/17 05:34:58;;;;;;;0.85;0.70;;;;;;;;;;1746476;80;26355;-53
2022/06/17 05:37:26;;;;;;;1.77;0.80;;;;;;;;;;1759699;80;26296;-51
2022/06/17 05:39:54;;;;;;;1.15;0.78;;;;;;;;;;1755084;80;26366;-54
2022/06/17 05:42:22;;;;;;;0.60;0.53;;;;;;;;;;1753873;80;26259;-57
2022/06/17 05:44:49;;;;;;;0.70;0.70;;;;;;;;;;1736110;80;26191;-55
2022/06/17 05:47:17;;;;;;;0.60;0.60;;;;;;;;;;1753453;82;26276;-53
2022/06/17 05:49:44;;;;;;;0.65;0.65;;;;;;;;;;1752924;80;26249;-50
2022/06/17 05:52:11;;;;;;;2.70;0.70;;;;;;;;;;1745978;80;26246;-50
2022/06/17 05:54:39;;;;;;;0.60;0.60;;;;;;;;;;1745333;80;26238;-53
2022/06/17 05:57:06;;;;;;;0.60;0.60;;;;;;;;;;1745580;80;26728;-52
2022/06/17 05:59:33;;;;;;;0.65;0.60;;;;;;;;;;1752758;80;26366;-51
2022/06/17 06:02:01;;;;;;;1.02;0.47;;;;;;;;;;1753125;80;26296;-48
2022/06/17 06:04:30;;;;;;;0.60;0.60;;;;;;;;;;1749790;81;26276;-51
2022/06/17 06:06:57;;;;;;;0.57;0.57;;;;;;;;;;1750059;79;27118;-49
2022/06/17 06:09:25;;;;;;;2.35;0.70;;;;;;;;;;1760366;80;26293;-49
2022/06/17 06:11:53;;;;;;;1.10;0.75;;;;;;;;;;1763250;80;26537;-55
2022/06/17 06:14:20;;;;;;;0.70;0.55;;;;;;;;;;1745235;79;26285;-54
2022/06/17 06:16:47;;;;;;;1.22;0.62;;;;;;;;;;1768925;79;26314;-55
2022/06/17 06:19:14;;;;;;;2.70;0.62;;;;;;;;;;1752802;80;26315;-49
2022/06/17 06:21:42;;;;;;;0.75;0.60;;;;;;;;;;1754905;80;26286;-52
2022/06/17 06:24:09;;;;;;;0.60;0.60;;;;;;;;;;1734074;80;26322;-53
2022/06/17 06:26:36;;;;;;;0.70;0.65;;;;;;;;;;1748207;80;26642;-50
2022/06/17 06:29:06;;;;;;;0.62;0.62;;;;;;;;;;1745062;80;26249;-50
2022/06/17 06:31:33;;;;;;;0.50;0.50;;;;;;;;;;1759045;80;26266;-51
2022/06/17 06:34:01;;;;;;;1.10;0.50;;;;;;;;;;1752265;80;26354;-51
2022/06/17 06:36:28;;;;;;;1.37;0.60;;;;;;;;;;1751207;80;26264;-52
2022/06/17 06:38:56;;;;;;;0.55;0.55;;;;;;;;;;1754116;80;26274;-52
2022/06/17 06:41:23;;;;;;;1.00;0.70;;;;;;;;;;1753159;81;27071;-48
2022/06/17 06:43:51;;;;;;;1.20;0.65;;;;;;;;;;1745411;80;26755;-51
2022/06/17 06:46:19;;;;;;;0.60;0.60;;;;;;;;;;1747488;80;26355;-52
2022/06/17 06:48:47;;;;;;;0.60;0.60;;;;;;;;;;1753848;82;26316;-46
2022/06/17 06:51:15;;;;;;;0.60;0.60;;;;;;;;;;1752470;80;26753;-50
2022/06/17 06:53:42;;;;;;;0.78;0.62;;;;;;;;;;1755011;82;26299;-55
2022/06/17 06:56:10;;;;;;;0.93;0.80;;;;;;;;;;1780750;80;26277;-49
2022/06/17 06:58:38;;;;;;;0.60;0.60;;;;;;;;;;1754516;81;26233;-55
2022/06/17 07:01:06;;;;;;;0.60;0.60;;;;;;;;;;1753747;82;26275;-50
2022/06/17 07:03:34;;;;;;;0.68;0.65;;;;;;;;;;1752175;80;26370;-49
2022/06/17 07:06:03;;;;;;;0.60;0.60;;;;;;;;;;1741500;80;26289;-50
2022/06/17 07:08:31;;;;;;;1.20;0.53;;;;;;;;;;1758130;80;26724;-50
2022/06/17 07:10:59;;;;;;;0.60;0.60;;;;;;;;;;1769294;80;26390;-52
2022/06/17 07:13:27;;;;;;;0.60;0.60;;;;;;;;;;1752294;80;26414;-52
2022/06/17 07:15:56;;;;;;;0.60;0.60;;;;;;;;;;1754970;80;26291;-54
2022/06/17 07:18:24;;;;;;;0.70;0.70;;;;;;;;;;1760372;80;26762;-55
2022/06/17 07:20:53;;;;;;;0.50;0.50;;;;;;;;;;1749130;80;26303;-53
2022/06/17 07:23:25;;;;;;;0.50;0.50;;;;;;;;;;1747732;80;26365;-54
2022/06/17 07:25:52;;;;;;;0.60;0.60;;;;;;;;;;1735162;80;26335;-50
2022/06/17 07:28:21;;;;;;;2.92;0.90;;;;;;;;;;1747761;80;26300;-57
2022/06/17 07:30:50;;;;;;;0.55;0.55;;;;;;;;;;1755447;80;26521;-59
2022/06/17 07:33:18;;;;;;;0.60;0.60;;;;;;;;;;1751971;80;26288;-53
2022/06/17 07:35:46;;;;;;;0.68;0.68;;;;;;;;;;1752420;80;26753;-54
2022/06/17 07:41:00;;;;;;;1.35;0.60;;;;;;;;;;1738450;80;26391;-53
2022/06/17 07:43:27;;;;;;;0.55;0.55;;;;;;;;;;1744833;80;26327;-49
2022/06/17 07:45:55;;;;;;;1.00;0.55;;;;;;;;;;1749544;80;26283;-53
2022/06/17 07:48:22;;;;;;;0.68;0.68;;;;;;;;;;1749061;80;26288;-53
2022/06/17 07:50:49;;;;;;;0.70;0.70;;;;;;;;;;1739642;80;26315;-49
2022/06/17 07:53:17;;;;;;;0.47;0.47;;;;;;;;;;1747391;80;26365;-56
2022/06/17 07:55:44;;;;;;;0.60;0.60;;;;;;;;;;1742254;80;26300;-49
2022/06/17 07:58:13;;;;;;;0.60;0.60;;;;;;;;;;1742798;80;26296;-50
2022/06/17 08:00:41;;;;;;;0.60;0.60;;;;;;;;;;1741954;80;26319;-56
2022/06/17 08:03:09;;;;;;;0.60;0.60;;;;;;;;;;1747483;80;26332;-53
2022/06/17 08:05:37;;;;;;;0.60;0.60;;;;;;;;;;1753142;80;26253;-51
2022/06/17 08:08:07;;;;;;;0.50;0.50;;;;;;;;;;1756907;80;26418;-48
2022/06/17 08:10:35;;;;;;;0.60;0.60;;;;;;;;;;1751019;80;26280;-50
2022/06/17 08:13:06;;;;;;;0.95;0.60;;;;;;;;;;1750213;80;26300;-51
2022/06/17 08:15:34;;;;;;;1.17;0.62;;;;;;;;;;1748115;80;27138;-54
2022/06/17 08:18:01;;;;;;;0.60;0.60;;;;;;;;;;1742540;80;26288;-54
2022/06/17 08:20:30;;;;;;;2.15;0.60;;;;;;;;;;1753069;80;26787;-48
2022/06/17 08:22:58;;;;;;;0.50;0.50;;;;;;;;;;1743791;80;26837;-49
2022/06/17 08:25:25;;;;;;;0.60;0.60;;;;;;;;;;1748106;80;26307;-53
2022/06/17 08:27:54;;;;;;;0.60;0.60;;;;;;;;;;1748442;80;26370;-49
2022/06/17 08:30:23;;;;;;;0.53;0.53;;;;;;;;;;1736773;80;26343;-49
2022/06/17 08:32:55;;;;;;;0.75;0.60;;;;;;;;;;1740819;80;26380;-50
2022/06/17 08:35:21;;;;;;;1.42;0.55;;;;;;;;;;1750571;80;26245;-55
2022/06/17 08:37:50;;;;;;;0.65;0.60;;;;;;;;;;1749495;80;26351;-51
2022/06/17 08:40:19;;;;;;;0.45;0.45;;;;;;;;;;1752041;80;26363;-50
2022/06/17 08:42:47;;;;;;;0.55;0.55;;;;;;;;;;1745724;80;26381;-52
2022/06/17 08:45:19;;;;;;;0.50;0.50;;;;;;;;;;1740791;80;26390;-46
2022/06/17 08:47:48;;;;;;;0.88;0.55;;;;;;;;;;1743672;80;26284;-53
2022/06/17 08:50:17;;;;;;;0.50;0.45;;;;;;;;;;1751743;80;26320;-49
2022/06/17 08:52:45;;;;;;;0.57;0.50;;;;;;;;;;1753685;80;26351;-57
2022/06/17 08:55:17;;;;;;;0.82;0.60;;;;;;;;;;1745688;80;26297;-52
2022/06/17 08:58:01;;;;;;;0.42;0.42;;;;;;;;;;1753574;80;26300;-54
2022/06/17 09:00:47;;;;;;;0.40;0.40;;;;;;;;;;1744911;80;26307;-48
2022/06/17 09:03:15;;;;;;;0.40;0.40;;;;;;;;;;1753870;80;26372;-46
2022/06/17 09:05:44;;;;;;;0.50;0.50;;;;;;;;;;1729306;80;39553;-47
2022/06/17 09:08:14;;;;;;;0.40;0.40;;;;;;;;;;1733885;80;28461;-52
2022/06/17 09:10:53;;;;;;;0.33;0.33;;;;;;;;;;1749628;80;26339;-49
2022/06/17 09:13:31;;;;;;;0.37;0.37;;;;;;;;;;1744639;80;26315;-50
2022/06/17 09:16:03;;;;;;;0.50;0.40;;;;;;;;;;1749533;80;26303;-54
2022/06/17 09:18:35;;;;;;;0.40;0.40;;;;;;;;;;1753096;80;26328;-47
2022/06/17 09:21:06;;;;;;;0.30;0.30;;;;;;;;;;1753289;80;26346;-48
2022/06/17 09:23:35;;;;;;;0.75;0.37;;;;;;;;;;1745409;80;26304;-52
2022/06/17 09:26:05;;;;;;;0.23;0.23;;;;;;;;;;1750155;80;27538;-52
2022/06/17 09:28:33;;;;;;;0.40;0.40;;;;;;;;;;1748139;80;26261;-53
2022/06/17 09:31:02;;;;;;;0.30;0.30;;;;;;;;;;1752081;80;26312;-51
2022/06/17 09:33:31;;;;;;;0.35;0.33;;;;;;;;;;1754143;80;26874;-54
2022/06/17 09:36:00;;;;;;;0.42;0.30;;;;;;;;;;1751977;80;26740;-47
2022/06/17 09:38:29;;;;;;;0.30;0.30;;;;;;;;;;1752451;80;26304;-49
2022/06/17 09:40:58;;;;;;;0.30;0.30;;;;;;;;;;1726806;80;26378;-50
2022/06/17 09:43:26;;;;;;;0.30;0.30;;;;;;;;;;1739937;80;26289;-50
2022/06/17 09:45:55;;;;;;;0.85;0.30;;;;;;;;;;1749034;80;26744;-51
2022/06/17 09:48:33;;;;;;;0.42;0.40;;;;;;;;;;1746652;80;26760;-51
2022/06/17 09:51:11;;;;;;;0.37;0.37;;;;;;;;;;1753283;80;26320;-49
2022/06/17 09:53:40;;;;;;;0.30;0.30;;;;;;;;;;1768430;80;26797;-47
2022/06/17 09:56:11;;;;;;;0.20;0.20;;;;;;;;;;1739996;80;26763;-48
2022/06/17 09:58:46;;;;;;;0.33;0.33;;;;;;;;;;1742546;80;26244;-51
2022/06/17 10:01:14;;;;;;;0.37;0.37;;;;;;;;;;1744112;80;26335;-49
2022/06/17 10:03:41;;;;;;;0.20;0.20;;;;;;;;;;1756191;80;26328;-49
2022/06/17 10:06:28;;;;;;;0.42;0.42;;;;;;;;;;1750171;80;26780;-49
2022/06/17 10:09:03;;;;;;;0.30;0.30;;;;;;;;;;1742314;80;26803;-48
2022/06/17 10:11:34;;;;;;;0.20;0.20;;;;;;;;;;1731679;80;26326;-51
2022/06/17 10:14:09;;;;;;;0.30;0.30;;;;;;;;;;1747330;80;26732;-49
2022/06/17 10:19:30;;;;;;;0.40;0.40;;;;;;;;;;1749379;80;26395;-51
2022/06/17 10:22:03;;;;;;;0.28;0.28;;;;;;;;;;1752990;80;26427;-47
2022/06/17 10:24:35;;;;;;;0.25;0.20;;;;;;;;;;1763108;80;26253;-50
2022/06/17 10:27:07;;;;;;;0.20;0.20;;;;;;;;;;1767946;80;26445;-47
2022/06/17 10:29:52;;;;;;;0.20;0.20;;;;;;;;;;1763935;80;26374;-49
2022/06/17 10:32:20;;;;;;;0.20;0.20;;;;;;;;;;1761570;80;26186;-48
2022/06/17 10:34:48;;;;;;;0.20;0.20;;;;;;;;;;1763896;79;26285;-46
2022/06/17 10:37:16;;;;;;;0.20;0.20;;;;;;;;;;1758281;80;26326;-48
2022/06/17 10:39:44;;;;;;;0.20;0.20;;;;;;;;;;1755907;80;26941;-49
2022/06/17 10:42:14;;;;;;;0.37;0.23;;;;;;;;;;1759505;80;26279;-47
2022/06/17 10:44:43;;;;;;;0.40;0.40;;;;;;;;;;1747365;80;26388;-49
2022/06/17 10:47:24;;;;;;;0.20;0.20;;;;;;;;;;1758448;79;26315;-49
2022/06/17 10:49:55;;;;;;;0.20;0.20;;;;;;;;;;1756775;79;26738;-48
2022/06/17 10:52:27;;;;;;;0.33;0.33;;;;;;;;;;1762314;79;26933;-48
2022/06/17 10:54:55;;;;;;;0.37;0.37;;;;;;;;;;1757871;79;26307;-49
2022/06/17 10:57:23;;;;;;;1.27;0.30;;;;;;;;;;1760432;80;26272;-50
2022/06/17 10:59:51;;;;;;;0.20;0.20;;;;;;;;;;1763161;80;26276;-50
2022/06/17 11:02:30;;;;;;;0.30;0.30;;;;;;;;;;1763871;79;26288;-48
2022/06/17 11:04:58;;;;;;;0.33;0.33;;;;;;;;;;1760642;79;26322;-45
2022/06/17 11:07:33;;;;;;;0.28;0.28;;;;;;;;;;1763431;80;26320;-49
2022/06/17 11:10:02;;;;;;;0.30;0.30;;;;;;;;;;1757981;79;26872;-50
2022/06/17 11:12:31;;;;;;;0.17;0.17;;;;;;;;;;1762537;80;26296;-50
2022/06/17 11:15:05;;;;;;;0.23;0.23;;;;;;;;;;1761500;80;26353;-47
2022/06/17 11:17:42;;;;;;;0.30;0.30;;;;;;;;;;1762470;80;26331;-49
2022/06/17 11:20:17;;;;;;;0.30;0.30;;;;;;;;;;1767208;80;26792;-49
2022/06/17 11:22:55;;;;;;;0.40;0.40;;;;;;;;;;1757075;79;26405;-56
2022/06/17 11:25:30;;;;;;;0.30;0.30;;;;;;;;;;1761414;79;26861;-53
2022/06/17 11:27:59;;;;;;;0.30;0.30;;;;;;;;;;1759691;80;26304;-51
2022/06/17 11:30:28;;;;;;;0.70;0.25;;;;;;;;;;1761477;80;26378;-53
2022/06/17 11:32:56;;;;;;;0.37;0.37;;;;;;;;;;1762816;80;26873;-52
2022/06/17 11:35:28;;;;;;;0.30;0.30;;;;;;;;;;1761847;79;26346;-52
2022/06/17 11:37:56;;;;;;;0.30;0.30;;;;;;;;;;1762776;80;26292;-51
2022/06/17 11:40:25;;;;;;;0.20;0.20;;;;;;;;;;1765597;79;26763;-51
2022/06/17 11:42:54;;;;;;;0.47;0.30;;;;;;;;;;1760569;80;26361;-54
2022/06/17 11:45:26;;;;;;;0.20;0.20;;;;;;;;;;1759009;79;26599;-52
2022/06/17 11:47:57;;;;;;;0.30;0.30;;;;;;;;;;1762986;80;26284;-54
2022/06/17 11:50:25;;;;;;;0.30;0.30;;;;;;;;;;1765116;79;26379;-51
2022/06/17 11:52:54;;;;;;;0.30;0.30;;;;;;;;;;1760159;80;26316;-50
2022/06/17 11:55:23;;;;;;;0.20;0.20;;;;;;;;;;1759806;80;26234;-46
2022/06/17 11:57:52;;;;;;;0.28;0.28;;;;;;;;;;1762191;80;26370;-47
2022/06/17 12:00:21;;;;;;;0.20;0.20;;;;;;;;;;1762381;80;26287;-47
2022/06/17 12:02:59;;;;;;;0.35;0.35;;;;;;;;;;1764881;79;26315;-53
2022/06/17 12:05:28;;;;;;;0.15;0.15;;;;;;;;;;1763522;80;26236;-47
2022/06/17 12:08:13;;;;;;;0.30;0.30;;;;;;;;;;1764720;79;26350;-47
2022/06/17 12:10:49;;;;;;;0.20;0.20;;;;;;;;;;1785853;80;26757;-49
2022/06/17 12:13:18;;;;;;;0.20;0.20;;;;;;;;;;1766225;80;26260;-52
2022/06/17 12:15:47;;;;;;;0.53;0.40;;;;;;;;;;1774156;79;26751;-51
2022/06/17 12:18:16;;;;;;;0.20;0.20;;;;;;;;;;1768079;80;26369;-49
2022/06/17 12:21:01;;;;;;;0.00;0.00;;;;;;;;;;1775367;80;26292;-52
2022/06/17 12:23:30;;;;;;;0.20;0.20;;;;;;;;;;1746755;81;26328;-50
2022/06/17 12:26:04;;;;;;;0.30;0.30;;;;;;;;;;1750360;80;26336;-51
2022/06/17 12:28:38;;;;;;;0.20;0.20;;;;;;;;;;1752309;80;26312;-50
2022/06/17 12:31:10;;;;;;;0.10;0.10;;;;;;;;;;1740735;81;26366;-50
2022/06/17 12:33:39;;;;;;;0.20;0.20;;;;;;;;;;1749371;80;26307;-52
2022/06/17 12:36:07;;;;;;;0.20;0.20;;;;;;;;;;1747794;80;26386;-51
2022/06/17 12:38:36;;;;;;;0.17;0.17;;;;;;;;;;1740617;80;26982;-48
2022/06/17 12:41:21;;;;;;;0.20;0.20;;;;;;;;;;1747911;80;26826;-51
2022/06/17 12:44:02;;;;;;;0.20;0.20;;;;;;;;;;1746148;80;26315;-49
2022/06/17 12:46:31;;;;;;;0.20;0.20;;;;;;;;;;1746626;80;26320;-54
2022/06/17 12:54:35;;;;;;;0.23;0.23;;;;;;;;;;1746908;80;26717;-54
2022/06/17 12:57:13;;;;;;;0.20;0.20;;;;;;;;;;1752870;80;26753;-52
2022/06/17 12:59:42;;;;;;;0.30;0.30;;;;;;;;;;1742676;80;26355;-50
2022/06/17 13:02:17;;;;;;;0.30;0.30;;;;;;;;;;1752609;80;26374;-53
2022/06/17 13:04:48;;;;;;;0.20;0.20;;;;;;;;;;1745644;81;26874;-47
2022/06/17 13:07:17;;;;;;;0.20;0.20;;;;;;;;;;1739770;80;26402;-52
2022/06/17 13:10:39;;;;;;;0.10;0.10;;;;;;;;;;1737772;80;26389;-47
2022/06/17 13:12:33;;;;;;;0.40;0.40;;;;;;;;;;1755909;80;26320;-45
2022/06/17 13:15:02;;;;;;;0.33;0.33;;;;;;;;;;1756293;80;26308;-43
2022/06/17 13:17:40;;;;;;;0.20;0.20;;;;;;;;;;1755971;80;28411;-54
2022/06/17 13:20:09;;;;;;;0.33;0.33;;;;;;;;;;1756611;80;26308;-50
2022/06/17 13:22:38;;;;;;;0.20;0.20;;;;;;;;;;1750936;80;26790;-52
2022/06/17 13:25:13;;;;;;;0.20;0.20;;;;;;;;;;1746736;81;26901;-56
2022/06/17 13:27:41;;;;;;;0.20;0.20;;;;;;;;;;1746291;81;26300;-51
2022/06/17 13:30:16;;;;;;;0.30;0.30;;;;;;;;;;1748298;80;26383;-50
2022/06/17 13:32:45;;;;;;;0.20;0.20;;;;;;;;;;1746623;81;26874;-52
2022/06/17 13:35:17;;;;;;;1.20;0.30;;;;;;;;;;1723942;82;26835;-50
2022/06/17 13:37:45;;;;;;;0.20;0.20;;;;;;;;;;1744874;80;26277;-47
2022/06/17 13:40:17;;;;;;;0.20;0.20;;;;;;;;;;1753055;80;26292;-47
2022/06/17 13:42:45;;;;;;;1.17;0.28;;;;;;;;;;1753001;80;26355;-48
2022/06/17 13:45:14;;;;;;;1.30;0.30;;;;;;;;;;1743945;80;26743;-50
2022/06/17 13:47:42;;;;;;;0.30;0.30;;;;;;;;;;1748317;80;27403;-49
2022/06/17 13:50:26;;;;;;;0.53;0.30;;;;;;;;;;1729665;80;26828;-54
2022/06/17 13:53:11;;;;;;;0.33;0.30;;;;;;;;;;1753846;80;26288;-51
2022/06/17 13:55:40;;;;;;;1.22;0.30;;;;;;;;;;1753565;80;26237;-53
2022/06/17 13:58:27;;;;;;;0.37;0.37;;;;;;;;;;1752110;80;26304;-50
2022/06/17 14:00:56;;;;;;;0.20;0.20;;;;;;;;;;1745613;80;26404;-53
2022/06/17 14:03:25;;;;;;;0.20;0.20;;;;;;;;;;1747788;80;26300;-55
2022/06/17 14:06:06;;;;;;;0.30;0.30;;;;;;;;;;1746764;80;26367;-58
2022/06/17 14:08:50;;;;;;;0.30;0.30;;;;;;;;;;1747254;80;26802;-50
2022/06/17 14:11:38;;;;;;;0.45;0.40;;;;;;;;;;1750858;80;26873;-47
2022/06/17 14:14:19;;;;;;;1.45;0.30;;;;;;;;;;1753900;80;26372;-49
2022/06/17 14:16:57;;;;;;;0.40;0.40;;;;;;;;;;1752825;80;26882;-50
2022/06/17 14:19:26;;;;;;;0.35;0.35;;;;;;;;;;1752439;80;26296;-48
2022/06/17 14:21:54;;;;;;;0.40;0.40;;;;;;;;;;1750686;80;26350;-49
2022/06/17 14:24:39;;;;;;;0.30;0.30;;;;;;;;;;1749736;80;26312;-51
2022/06/17 14:27:08;;;;;;;0.30;0.30;;;;;;;;;;1749050;80;26359;-50
2022/06/17 14:29:35;;;;;;;0.40;0.40;;;;;;;;;;1757323;80;26304;-52
2022/06/17 14:32:04;;;;;;;0.33;0.33;;;;;;;;;;1752874;80;26296;-54
2022/06/17 14:34:33;;;;;;;1.75;0.60;;;;;;;;;;1755745;80;26249;-50
2022/06/17 14:37:02;;;;;;;0.20;0.20;;;;;;;;;;1751569;80;26355;-48
2022/06/17 14:39:43;;;;;;;0.30;0.30;;;;;;;;;;1749599;80;26645;-54
2022/06/17 14:42:15;;;;;;;0.30;0.30;;;;;;;;;;1757994;80;26300;-52
2022/06/17 14:44:46;;;;;;;1.85;0.30;;;;;;;;;;1748250;80;26300;-50
2022/06/17 14:47:18;;;;;;;1.35;0.30;;;;;;;;;;1698577;81;26311;-54
2022/06/17 14:49:47;;;;;;;0.20;0.20;;;;;;;;;;1747490;81;27500;-48
2022/06/17 14:52:22;;;;;;;0.20;0.20;;;;;;;;;;1748277;81;26782;-56
2022/06/17 14:54:58;;;;;;;0.37;0.30;;;;;;;;;;1742637;81;26255;-51
2022/06/17 14:57:27;;;;;;;0.37;0.37;;;;;;;;;;1738613;81;26820;-49
2022/06/17 15:00:03;;;;;;;0.40;0.40;;;;;;;;;;1734902;81;26309;-53
2022/06/17 15:02:35;;;;;;;0.42;0.25;;;;;;;;;;1733796;81;26317;-48
2022/06/17 15:05:03;;;;;;;0.53;0.47;;;;;;;;;;1748330;80;26580;-53
2022/06/17 15:07:40;;;;;;;0.50;0.50;;;;;;;;;;1761409;80;26808;-53
2022/06/17 15:10:28;;;;;;;0.40;0.40;;;;;;;;;;1753027;80;26298;-52
2022/06/17 15:12:57;;;;;;;0.60;0.57;;;;;;;;;;1754975;80;26300;-53
2022/06/17 15:15:31;;;;;;;0.55;0.55;;;;;;;;;;1753284;80;26359;-50
2022/06/17 15:18:03;;;;;;;0.70;0.50;;;;;;;;;;1751050;80;26301;-50